sensor_id;sensor_type;location;lat;lon;timestamp;pressure;altitude;pressure_sealevel;temperature
26158;BMP280;67284;44.782;10.282;2023-02-28T00:04:18;101570.06;;;8.17
26158;BMP280;67284;44.782;10.282;2023-02-28T00:09:10;101574.34;;;8.18
26158;BMP280;67284;44.782;10.282;2023-02-28T00:14:02;101570.97;;;8.19
26158;BMP280;67284;44.782;10.282;2023-02-28T00:18:53;101578.69;;;8.21
26158;BMP280;67284;44.782;10.282;2023-02-28T00:23:45;101584.66;;;8.21
26158;BMP280;67284;44.782;10.282;2023-02-28T00:28:37;101582.09;;;8.21
26158;BMP280;67284;44.782;10.282;2023-02-28T00:33:29;101582.97;;;8.20
26158;BMP280;67284;44.782;10.282;2023-02-28T00:38:21;101591.53;;;8.24
26158;BMP280;67284;44.782;10.282;2023-02-28T00:43:12;101592.41;;;8.26
26158;BMP280;67284;44.782;10.282;2023-02-28T00:48:04;101598.41;;;8.26
26158;BMP280;67284;44.782;10.282;2023-02-28T00:52:56;101594.13;;;8.27
26158;BMP280;67284;44.782;10.282;2023-02-28T00:57:48;101580.47;;;8.28
26158;BMP280;67284;44.782;10.282;2023-02-28T01:02:40;101590.72;;;8.28
26158;BMP280;67284;44.782;10.282;2023-02-28T01:07:32;101595.00;;;8.27
26158;BMP280;67284;44.782;10.282;2023-02-28T01:12:23;101601.84;;;8.28
26158;BMP280;67284;44.782;10.282;2023-02-28T01:17:15;101595.03;;;8.29
26158;BMP280;67284;44.782;10.282;2023-02-28T01:22:07;101591.59;;;8.29
26158;BMP280;67284;44.782;10.282;2023-02-28T01:26:59;101592.47;;;8.29
26158;BMP280;67284;44.782;10.282;2023-02-28T01:31:51;101590.75;;;8.29
26158;BMP280;67284;44.782;10.282;2023-02-28T01:36:42;101595.00;;;8.27
26158;BMP280;67284;44.782;10.282;2023-02-28T01:41:35;101601.84;;;8.28
26158;BMP280;67284;44.782;10.282;2023-02-28T01:46:26;101583.09;;;8.30
26158;BMP280;67284;44.782;10.282;2023-02-28T01:51:22;101598.47;;;8.32
26158;BMP280;67284;44.782;10.282;2023-02-28T01:56:18;101576.25;;;8.32
26158;BMP280;67284;44.782;10.282;2023-02-28T02:01:13;101587.41;;;8.34
26158;BMP280;67284;44.782;10.282;2023-02-28T02:06:13;101578.00;;;8.35
26158;BMP280;67284;44.782;10.282;2023-02-28T02:11:08;101578.88;;;8.35
26158;BMP280;67284;44.782;10.282;2023-02-28T02:37:48;101571.22;;;8.37
26158;BMP280;67284;44.782;10.282;2023-02-28T02:47:43;101582.34;;;8.40
26158;BMP280;67284;44.782;10.282;2023-02-28T02:52:42;101578.00;;;8.35
26158;BMP280;67284;44.782;10.282;2023-02-28T02:57:45;101580.63;;;8.39
26158;BMP280;67284;44.782;10.282;2023-02-28T03:02:38;101577.25;;;8.43
26158;BMP280;67284;44.782;10.282;2023-02-28T03:07:31;101581.53;;;8.43
26158;BMP280;67284;44.782;10.282;2023-02-28T03:12:49;101576.44;;;8.44
26158;BMP280;67284;44.782;10.282;2023-02-28T03:17:47;101579.84;;;8.45
26158;BMP280;67284;44.782;10.282;2023-02-28T03:28:31;101578.94;;;8.41
26158;BMP280;67284;44.782;10.282;2023-02-28T03:33:30;101580.63;;;8.39
26158;BMP280;67284;44.782;10.282;2023-02-28T03:43:24;101585.63;;;8.29
26158;BMP280;67284;44.782;10.282;2023-02-28T03:48:55;101594.06;;;8.21
26158;BMP280;67284;44.782;10.282;2023-02-28T03:53:53;101598.34;;;8.22
26158;BMP280;67284;44.782;10.282;2023-02-28T03:59:36;101607.72;;;8.20
26158;BMP280;67284;44.782;10.282;2023-02-28T04:04:08;101599.97;;;8.15
26158;BMP280;67284;44.782;10.282;2023-02-28T04:09:01;101607.72;;;8.20
26158;BMP280;67284;44.782;10.282;2023-02-28T04:13:53;101597.50;;;8.23
26158;BMP280;67284;44.782;10.282;2023-02-28T04:18:45;101600.06;;;8.23
26158;BMP280;67284;44.782;10.282;2023-02-28T04:23:37;101600.06;;;8.24
26158;BMP280;67284;44.782;10.282;2023-02-28T04:28:29;101602.63;;;8.24
26158;BMP280;67284;44.782;10.282;2023-02-28T04:33:21;101609.47;;;8.24
26158;BMP280;67284;44.782;10.282;2023-02-28T04:38:12;101617.16;;;8.24
26158;BMP280;67284;44.782;10.282;2023-02-28T04:43:04;101624.88;;;8.24
26158;BMP280;67284;44.782;10.282;2023-02-28T04:47:56;101612.03;;;8.22
26158;BMP280;67284;44.782;10.282;2023-02-28T04:52:48;101612.88;;;8.23
26158;BMP280;67284;44.782;10.282;2023-02-28T04:57:40;101619.75;;;8.24
26158;BMP280;67284;44.782;10.282;2023-02-28T05:02:34;101613.75;;;8.23
26158;BMP280;67284;44.782;10.282;2023-02-28T05:07:27;101623.13;;;8.23
26158;BMP280;67284;44.782;10.282;2023-02-28T05:12:18;101618.88;;;8.23
26158;BMP280;67284;44.782;10.282;2023-02-28T05:17:10;101620.59;;;8.24
26158;BMP280;67284;44.782;10.282;2023-02-28T05:22:02;101615.47;;;8.24
26158;BMP280;67284;44.782;10.282;2023-02-28T05:26:54;101621.47;;;8.25
26158;BMP280;67284;44.782;10.282;2023-02-28T05:31:46;101620.59;;;8.26
26158;BMP280;67284;44.782;10.282;2023-02-28T05:36:39;101626.59;;;8.25
26158;BMP280;67284;44.782;10.282;2023-02-28T05:41:30;101628.31;;;8.26
26158;BMP280;67284;44.782;10.282;2023-02-28T05:46:23;101623.13;;;8.23
26158;BMP280;67284;44.782;10.282;2023-02-28T05:51:15;101625.72;;;8.24
26158;BMP280;67284;44.782;10.282;2023-02-28T05:56:07;101633.38;;;8.21
26158;BMP280;67284;44.782;10.282;2023-02-28T06:01:00;101634.19;;;8.19
26158;BMP280;67284;44.782;10.282;2023-02-28T06:05:53;101638.47;;;8.18
26158;BMP280;67284;44.782;10.282;2023-02-28T06:10:45;101651.28;;;8.18
26158;BMP280;67284;44.782;10.282;2023-02-28T06:15:37;101663.22;;;8.16
26158;BMP280;67284;44.782;10.282;2023-02-28T06:20:29;101657.22;;;8.16
26158;BMP280;67284;44.782;10.282;2023-02-28T06:25:21;101658.91;;;8.14
26158;BMP280;67284;44.782;10.282;2023-02-28T06:30:13;101676.75;;;8.08
26158;BMP280;67284;44.782;10.282;2023-02-28T06:35:05;101682.66;;;8.04
26158;BMP280;67284;44.782;10.282;2023-02-28T06:39:57;101678.28;;;7.98
26158;BMP280;67284;44.782;10.282;2023-02-28T06:44:50;101684.19;;;7.93
26158;BMP280;67284;44.782;10.282;2023-02-28T06:49:42;101684.94;;;7.87
26158;BMP280;67284;44.782;10.282;2023-02-28T06:54:36;101685.75;;;7.85
26158;BMP280;67284;44.782;10.282;2023-02-28T06:59:28;101690.06;;;7.87
26158;BMP280;67284;44.782;10.282;2023-02-28T07:04:21;101692.72;;;7.93
26158;BMP280;67284;44.782;10.282;2023-02-28T07:09:13;101694.44;;;7.93
26158;BMP280;67284;44.782;10.282;2023-02-28T07:14:05;101695.28;;;7.93
26158;BMP280;67284;44.782;10.282;2023-02-28T07:18:57;101696.22;;;7.98
26158;BMP280;67284;44.782;10.282;2023-02-28T07:23:49;101701.44;;;8.03
26158;BMP280;67284;44.782;10.282;2023-02-28T07:28:41;101702.25;;;8.02
26158;BMP280;67284;44.782;10.282;2023-02-28T07:33:33;101703.13;;;8.01
26158;BMP280;67284;44.782;10.282;2023-02-28T07:38:25;101701.44;;;8.04
26158;BMP280;67284;44.782;10.282;2023-02-28T07:43:17;101696.28;;;8.03
26158;BMP280;67284;44.782;10.282;2023-02-28T07:48:09;101709.97;;;8.03
26158;BMP280;67284;44.782;10.282;2023-02-28T07:53:01;101718.44;;;7.98
26158;BMP280;67284;44.782;10.282;2023-02-28T07:57:53;101717.56;;;7.97
26158;BMP280;67284;44.782;10.282;2023-02-28T08:02:45;101715.03;;;7.99
26158;BMP280;67284;44.782;10.282;2023-02-28T08:07:37;101709.06;;;7.98
26158;BMP280;67284;44.782;10.282;2023-02-28T08:12:29;101718.50;;;8.01
26158;BMP280;67284;44.782;10.282;2023-02-28T08:17:21;101730.38;;;7.97
26158;BMP280;67284;44.782;10.282;2023-02-28T08:22:12;101726.97;;;7.97
26158;BMP280;67284;44.782;10.282;2023-02-28T08:27:05;101730.38;;;7.97
26158;BMP280;67284;44.782;10.282;2023-02-28T08:31:57;101733.81;;;7.98
26158;BMP280;67284;44.782;10.282;2023-02-28T08:36:50;101734.38;;;7.80
26158;BMP280;67284;44.782;10.282;2023-02-28T08:41:42;101729.88;;;7.68
26158;BMP280;67284;44.782;10.282;2023-02-28T08:46:34;101734.13;;;7.67
26158;BMP280;67284;44.782;10.282;2023-02-28T08:51:26;101740.06;;;7.65
26158;BMP280;67284;44.782;10.282;2023-02-28T08:56:19;101736.63;;;7.64
26158;BMP280;67284;44.782;10.282;2023-02-28T09:01:20;101737.41;;;7.59
26158;BMP280;67284;44.782;10.282;2023-02-28T09:06:13;101731.38;;;7.57
26158;BMP280;67284;44.782;10.282;2023-02-28T09:11:05;101751.13;;;7.62
26158;BMP280;67284;44.782;10.282;2023-02-28T09:16:02;101744.38;;;7.66
26158;BMP280;67284;44.782;10.282;2023-02-28T09:20:55;101748.69;;;7.70
26158;BMP280;67284;44.782;10.282;2023-02-28T09:25:49;101755.63;;;7.75
26158;BMP280;67284;44.782;10.282;2023-02-28T09:30:41;101758.19;;;7.76
26158;BMP280;67284;44.782;10.282;2023-02-28T09:35:33;101751.41;;;7.77
26158;BMP280;67284;44.782;10.282;2023-02-28T09:40:26;101752.91;;;7.66
26158;BMP280;67284;44.782;10.282;2023-02-28T09:45:33;101752.19;;;7.73
26158;BMP280;67284;44.782;10.282;2023-02-28T09:55:22;101760.88;;;7.81
26158;BMP280;67284;44.782;10.282;2023-02-28T10:00:24;101760.75;;;7.75
26158;BMP280;67284;44.782;10.282;2023-02-28T10:05:26;101754.00;;;7.80
26158;BMP280;67284;44.782;10.282;2023-02-28T10:15:15;101754.09;;;7.86
26158;BMP280;67284;44.782;10.282;2023-02-28T10:20:11;101750.75;;;7.88
26158;BMP280;67284;44.782;10.282;2023-02-28T10:25:17;101757.47;;;7.83
26158;BMP280;67284;44.782;10.282;2023-02-28T10:30:11;101752.41;;;7.88
26158;BMP280;67284;44.782;10.282;2023-02-28T10:40:01;101755.91;;;7.91
26158;BMP280;67284;44.782;10.282;2023-02-28T10:45:14;101754.34;;;7.98
26158;BMP280;67284;44.782;10.282;2023-02-28T10:55:37;101754.47;;;8.07
26158;BMP280;67284;44.782;10.282;2023-02-28T11:00:35;101755.38;;;8.10
26158;BMP280;67284;44.782;10.282;2023-02-28T11:05:35;101743.44;;;8.11
26158;BMP280;67284;44.782;10.282;2023-02-28T11:10:30;101739.13;;;8.10
26158;BMP280;67284;44.782;10.282;2023-02-28T11:15:28;101737.47;;;8.12
26158;BMP280;67284;44.782;10.282;2023-02-28T11:20:23;101734.97;;;8.13
26158;BMP280;67284;44.782;10.282;2023-02-28T11:25:26;101719.63;;;8.15
26158;BMP280;67284;44.782;10.282;2023-02-28T11:30:38;101723.94;;;8.19
26158;BMP280;67284;44.782;10.282;2023-02-28T11:35:34;101714.53;;;8.18
26158;BMP280;67284;44.782;10.282;2023-02-28T11:46:06;101699.94;;;8.14
26158;BMP280;67284;44.782;10.282;2023-02-28T11:51:33;101696.53;;;8.15
26158;BMP280;67284;44.782;10.282;2023-02-28T11:56:28;101687.16;;;8.17
26158;BMP280;67284;44.782;10.282;2023-02-28T12:01:39;101688.94;;;8.21
26158;BMP280;67284;44.782;10.282;2023-02-28T12:06:49;101676.16;;;8.24
26158;BMP280;67284;44.782;10.282;2023-02-28T12:11:55;101669.75;;;7.98
26158;BMP280;67284;44.782;10.282;2023-02-28T12:27:37;101643.59;;;8.20
26158;BMP280;67284;44.782;10.282;2023-02-28T12:32:39;101640.22;;;8.22
26158;BMP280;67284;44.782;10.282;2023-02-28T12:37:46;101642.00;;;8.26
26158;BMP280;67284;44.782;10.282;2023-02-28T12:42:56;101617.94;;;8.17
26158;BMP280;67284;44.782;10.282;2023-02-28T12:48:01;101616.22;;;8.19
26158;BMP280;67284;44.782;10.282;2023-02-28T12:53:00;101608.59;;;8.20
26158;BMP280;67284;44.782;10.282;2023-02-28T12:58:09;101601.81;;;8.27
26158;BMP280;67284;44.782;10.282;2023-02-28T13:13:22;101589.03;;;8.29
26158;BMP280;67284;44.782;10.282;2023-02-28T13:18:37;101585.63;;;8.29
26158;BMP280;67284;44.782;10.282;2023-02-28T13:34:12;101564.34;;;8.36
26158;BMP280;67284;44.782;10.282;2023-02-28T13:44:28;101542.09;;;8.35
26158;BMP280;67284;44.782;10.282;2023-02-28T13:59:53;101536.94;;;8.33
26158;BMP280;67284;44.782;10.282;2023-02-28T14:05:00;101536.13;;;8.34
26158;BMP280;67284;44.782;10.282;2023-02-28T14:09:57;101528.41;;;8.33
26158;BMP280;67284;44.782;10.282;2023-02-28T14:19:47;101519.00;;;8.33
26158;BMP280;67284;44.782;10.282;2023-02-28T14:30:02;101519.94;;;8.38
26158;BMP280;67284;44.782;10.282;2023-02-28T14:40:16;101504.47;;;8.34
26158;BMP280;67284;44.782;10.282;2023-02-28T14:45:18;101508.78;;;8.36
26158;BMP280;67284;44.782;10.282;2023-02-28T14:50:19;101505.38;;;8.37
26158;BMP280;67284;44.782;10.282;2023-02-28T14:55:17;101495.94;;;8.36
26158;BMP280;67284;44.782;10.282;2023-02-28T15:00:22;101493.41;;;8.39
26158;BMP280;67284;44.782;10.282;2023-02-28T15:10:23;101492.56;;;8.39
26158;BMP280;67284;44.782;10.282;2023-02-28T15:15:16;101495.16;;;8.40
26158;BMP280;67284;44.782;10.282;2023-02-28T15:20:12;101495.13;;;8.37
26158;BMP280;67284;44.782;10.282;2023-02-28T15:25:06;101484.88;;;8.40
26158;BMP280;67284;44.782;10.282;2023-02-28T15:30:04;101478.06;;;8.42
26158;BMP280;67284;44.782;10.282;2023-02-28T15:34:58;101478.16;;;8.48
26158;BMP280;67284;44.782;10.282;2023-02-28T15:39:51;101485.91;;;8.56
26158;BMP280;67284;44.782;10.282;2023-02-28T15:44:43;101486.75;;;8.56
26158;BMP280;67284;44.782;10.282;2023-02-28T15:49:51;101470.53;;;8.57
26158;BMP280;67284;44.782;10.282;2023-02-28T15:54:44;101474.81;;;8.55
26158;BMP280;67284;44.782;10.282;2023-02-28T15:59:49;101473.09;;;8.57
26158;BMP280;67284;44.782;10.282;2023-02-28T16:09:54;101474.03;;;8.62
26158;BMP280;67284;44.782;10.282;2023-02-28T16:14:46;101470.59;;;8.63
26158;BMP280;67284;44.782;10.282;2023-02-28T16:19:39;101468.91;;;8.64
26158;BMP280;67284;44.782;10.282;2023-02-28T16:24:30;101461.22;;;8.64
26158;BMP280;67284;44.782;10.282;2023-02-28T16:29:31;101454.34;;;8.64
26158;BMP280;67284;44.782;10.282;2023-02-28T16:34:23;101455.19;;;8.63
26158;BMP280;67284;44.782;10.282;2023-02-28T16:39:15;101452.69;;;8.66
26158;BMP280;67284;44.782;10.282;2023-02-28T16:44:12;101447.56;;;8.66
26158;BMP280;67284;44.782;10.282;2023-02-28T16:49:10;101445.81;;;8.65
26158;BMP280;67284;44.782;10.282;2023-02-28T16:54:02;101449.22;;;8.64
26158;BMP280;67284;44.782;10.282;2023-02-28T16:58:58;101454.34;;;8.64
26158;BMP280;67284;44.782;10.282;2023-02-28T17:03:50;101449.22;;;8.64
26158;BMP280;67284;44.782;10.282;2023-02-28T17:08:42;101452.63;;;8.63
26158;BMP280;67284;44.782;10.282;2023-02-28T17:13:34;101466.34;;;8.65
26158;BMP280;67284;44.782;10.282;2023-02-28T17:18:26;101471.50;;;8.67
26158;BMP280;67284;44.782;10.282;2023-02-28T17:23:20;101475.78;;;8.68
26158;BMP280;67284;44.782;10.282;2023-02-28T17:28:12;101486.06;;;8.68
26158;BMP280;67284;44.782;10.282;2023-02-28T17:33:03;101483.50;;;8.69
26158;BMP280;67284;44.782;10.282;2023-02-28T17:37:55;101486.91;;;8.70
26158;BMP280;67284;44.782;10.282;2023-02-28T17:42:47;101490.34;;;8.72
26158;BMP280;67284;44.782;10.282;2023-02-28T17:47:40;101486.94;;;8.73
26158;BMP280;67284;44.782;10.282;2023-02-28T17:52:32;101479.25;;;8.73
26158;BMP280;67284;44.782;10.282;2023-02-28T17:57:28;101486.09;;;8.74
26158;BMP280;67284;44.782;10.282;2023-02-28T18:02:19;101489.53;;;8.74
26158;BMP280;67284;44.782;10.282;2023-02-28T18:07:12;101486.94;;;8.74
26158;BMP280;67284;44.782;10.282;2023-02-28T18:12:04;101493.81;;;8.75
26158;BMP280;67284;44.782;10.282;2023-02-28T18:16:56;101485.28;;;8.75
26158;BMP280;67284;44.782;10.282;2023-02-28T18:21:52;101486.94;;;8.74
26158;BMP280;67284;44.782;10.282;2023-02-28T18:26:44;101480.09;;;8.73
26158;BMP280;67284;44.782;10.282;2023-02-28T18:31:36;101480.13;;;8.75
26158;BMP280;67284;44.782;10.282;2023-02-28T18:36:28;101483.56;;;8.75
26158;BMP280;67284;44.782;10.282;2023-02-28T18:41:20;101483.56;;;8.78
26158;BMP280;67284;44.782;10.282;2023-02-28T18:46:14;101486.97;;;8.77
26158;BMP280;67284;44.782;10.282;2023-02-28T18:51:08;101485.28;;;8.76
26158;BMP280;67284;44.782;10.282;2023-02-28T18:56:00;101493.81;;;8.75
26158;BMP280;67284;44.782;10.282;2023-02-28T19:00:52;101493.81;;;8.75
26158;BMP280;67284;44.782;10.282;2023-02-28T19:05:45;101495.56;;;8.76
26158;BMP280;67284;44.782;10.282;2023-02-28T19:10:38;101489.53;;;8.76
26158;BMP280;67284;44.782;10.282;2023-02-28T19:15:33;101479.28;;;8.77
26158;BMP280;67284;44.782;10.282;2023-02-28T19:20:25;101481.00;;;8.77
26158;BMP280;67284;44.782;10.282;2023-02-28T19:25:17;101482.72;;;8.76
26158;BMP280;67284;44.782;10.282;2023-02-28T19:30:09;101473.28;;;8.75
26158;BMP280;67284;44.782;10.282;2023-02-28T19:35:02;101459.63;;;8.76
26158;BMP280;67284;44.782;10.282;2023-02-28T19:39:55;101468.16;;;8.75
26158;BMP280;67284;44.782;10.282;2023-02-28T19:44:47;101461.31;;;8.77
26158;BMP280;67284;44.782;10.282;2023-02-28T19:49:39;101460.50;;;8.80
26158;BMP280;67284;44.782;10.282;2023-02-28T19:54:31;101463.06;;;8.81
26158;BMP280;67284;44.782;10.282;2023-02-28T19:59:25;101463.09;;;8.82
26158;BMP280;67284;44.782;10.282;2023-02-28T20:04:28;101463.91;;;8.81
26158;BMP280;67284;44.782;10.282;2023-02-28T20:09:20;101467.38;;;8.82
26158;BMP280;67284;44.782;10.282;2023-02-28T20:14:13;101474.22;;;8.83
26158;BMP280;67284;44.782;10.282;2023-02-28T20:19:05;101475.09;;;8.85
26158;BMP280;67284;44.782;10.282;2023-02-28T20:23:57;101475.94;;;8.84
26158;BMP280;67284;44.782;10.282;2023-02-28T20:28:49;101470.78;;;8.82
26158;BMP280;67284;44.782;10.282;2023-02-28T20:33:42;101462.22;;;8.82
26158;BMP280;67284;44.782;10.282;2023-02-28T20:38:37;101469.94;;;8.82
26158;BMP280;67284;44.782;10.282;2023-02-28T20:43:29;101473.34;;;8.82
26158;BMP280;67284;44.782;10.282;2023-02-28T20:48:21;101469.06;;;8.81
26158;BMP280;67284;44.782;10.282;2023-02-28T20:53:13;101470.75;;;8.80
26158;BMP280;67284;44.782;10.282;2023-02-28T20:58:05;101483.59;;;8.80
26158;BMP280;67284;44.782;10.282;2023-02-28T21:02:57;101490.44;;;8.79
26158;BMP280;67284;44.782;10.282;2023-02-28T21:07:49;101488.72;;;8.78
26158;BMP280;67284;44.782;10.282;2023-02-28T21:12:41;101495.56;;;8.79
26158;BMP280;67284;44.782;10.282;2023-02-28T21:17:33;101491.28;;;8.80
26158;BMP280;67284;44.782;10.282;2023-02-28T21:22:24;101490.44;;;8.79
26158;BMP280;67284;44.782;10.282;2023-02-28T21:27:16;101491.28;;;8.80
26158;BMP280;67284;44.782;10.282;2023-02-28T21:32:08;101498.16;;;8.81
26158;BMP280;67284;44.782;10.282;2023-02-28T21:37:00;101491.28;;;8.78
26158;BMP280;67284;44.782;10.282;2023-02-28T21:41:53;101497.25;;;8.77
26158;BMP280;67284;44.782;10.282;2023-02-28T21:46:46;101498.97;;;8.77
26158;BMP280;67284;44.782;10.282;2023-02-28T21:51:39;101494.66;;;8.74
26158;BMP280;67284;44.782;10.282;2023-02-28T21:56:33;101496.38;;;8.74
26158;BMP280;67284;44.782;10.282;2023-02-28T22:01:35;101500.63;;;8.73
26158;BMP280;67284;44.782;10.282;2023-02-28T22:06:29;101503.19;;;8.73
26158;BMP280;67284;44.782;10.282;2023-02-28T22:11:22;101504.06;;;8.72
26158;BMP280;67284;44.782;10.282;2023-02-28T22:16:17;101488.66;;;8.72
26158;BMP280;67284;44.782;10.282;2023-02-28T22:21:10;101494.63;;;8.71
26158;BMP280;67284;44.782;10.282;2023-02-28T22:26:04;101500.56;;;8.67
26158;BMP280;67284;44.782;10.282;2023-02-28T22:30:57;101504.00;;;8.66
26158;BMP280;67284;44.782;10.282;2023-02-28T22:35:49;101495.41;;;8.64
26158;BMP280;67284;44.782;10.282;2023-02-28T22:40:41;101493.69;;;8.63
26158;BMP280;67284;44.782;10.282;2023-02-28T22:45:38;101484.28;;;8.64
26158;BMP280;67284;44.782;10.282;2023-02-28T22:50:30;101492.81;;;8.63
26158;BMP280;67284;44.782;10.282;2023-02-28T22:55:21;101488.53;;;8.63
26158;BMP280;67284;44.782;10.282;2023-02-28T23:00:13;101491.97;;;8.62
26158;BMP280;67284;44.782;10.282;2023-02-28T23:05:06;101486.84;;;8.61
26158;BMP280;67284;44.782;10.282;2023-02-28T23:09:57;101486.84;;;8.61
26158;BMP280;67284;44.782;10.282;2023-02-28T23:14:49;101479.06;;;8.56
26158;BMP280;67284;44.782;10.282;2023-02-28T23:19:41;101472.22;;;8.54
26158;BMP280;67284;44.782;10.282;2023-02-28T23:24:34;101473.91;;;8.52
26158;BMP280;67284;44.782;10.282;2023-02-28T23:29:27;101465.31;;;8.48
26158;BMP280;67284;44.782;10.282;2023-02-28T23:34:19;101481.53;;;8.47
26158;BMP280;67284;44.782;10.282;2023-02-28T23:39:17;101464.47;;;8.49
26158;BMP280;67284;44.782;10.282;2023-02-28T23:44:09;101462.75;;;8.48
26158;BMP280;67284;44.782;10.282;2023-02-28T23:49:07;101467.06;;;8.51
26158;BMP280;67284;44.782;10.282;2023-02-28T23:53:59;101469.66;;;8.52
26158;BMP280;67284;44.782;10.282;2023-02-28T23:58:54;101469.66;;;8.52
